createdAt,value
2022-09-02T00:01:55.099Z,101072.06
2022-09-02T00:04:24.421Z,101075.56
2022-09-02T00:06:54.187Z,101071.13
2022-09-02T00:09:23.914Z,101072.00
2022-09-02T00:11:52.576Z,101064.94
2022-09-02T00:14:28.958Z,101075.72
2022-09-02T00:17:00.806Z,101066.75
2022-09-02T00:19:29.923Z,101068.56
2022-09-02T00:21:57.760Z,101063.22
2022-09-02T00:24:25.050Z,101061.41
2022-09-02T00:26:51.727Z,101063.16
2022-09-02T00:29:27.216Z,101062.28
2022-09-02T00:31:54.442Z,101064.09
2022-09-02T00:34:21.205Z,101054.25
2022-09-02T00:36:50.179Z,101059.59
2022-09-02T00:39:17.200Z,101064.13
2022-09-02T00:41:44.839Z,101061.44
2022-09-02T00:44:16.618Z,101044.53
2022-09-02T00:46:44.131Z,101049.94
2022-09-02T00:49:25.197Z,101051.69
2022-09-02T00:52:04.491Z,101048.13
2022-09-02T00:54:35.323Z,101048.13
2022-09-02T00:57:04.168Z,101045.50
2022-09-02T01:00:04.351Z,101040.19
2022-09-02T01:02:31.753Z,101042.00
2022-09-02T01:05:03.161Z,101044.69
2022-09-02T01:07:38.122Z,101041.13
2022-09-02T01:10:08.236Z,101040.25
2022-09-02T01:12:35.724Z,101034.91
2022-09-02T01:15:07.398Z,101042.03
2022-09-02T01:17:34.806Z,101037.59
2022-09-02T01:20:14.247Z,101032.25
2022-09-02T01:22:42.200Z,101035.84
2022-09-02T01:25:17.742Z,101037.59
2022-09-02T01:27:48.196Z,101033.13
2022-09-02T01:30:21.992Z,101036.72
2022-09-02T01:32:52.186Z,101034.91
2022-09-02T01:35:19.896Z,101037.59
2022-09-02T01:37:55.772Z,101035.84
2022-09-02T01:40:27.910Z,101029.59
2022-09-02T01:42:57.561Z,101019.81
2022-09-02T01:45:24.619Z,101021.63
2022-09-02T01:47:54.741Z,101021.66
2022-09-02T01:50:21.999Z,101019.84
2022-09-02T01:52:50.230Z,101019.84
2022-09-02T01:55:17.025Z,101018.94
2022-09-02T01:57:43.836Z,101013.63
2022-09-02T02:00:13.337Z,101014.50
2022-09-02T02:02:40.397Z,101013.59
2022-09-02T02:05:11.227Z,101016.31
2022-09-02T02:07:39.830Z,101010.94
2022-09-02T02:10:08.506Z,101017.13
2022-09-02T02:12:35.906Z,101018.06
2022-09-02T02:15:09.794Z,101017.19
2022-09-02T02:17:37.222Z,101019.81
2022-09-02T02:20:07.043Z,101019.84
2022-09-02T02:22:34.124Z,101011.81
2022-09-02T02:25:00.914Z,101012.72
2022-09-02T02:27:29.570Z,101007.41
2022-09-02T02:30:00.963Z,101007.38
2022-09-02T02:32:29.261Z,101010.06
2022-09-02T02:34:56.291Z,101011.88
2022-09-02T02:37:25.524Z,101009.19
2022-09-02T02:39:53.123Z,101016.31
2022-09-02T02:42:20.191Z,101016.34
2022-09-02T02:44:47.045Z,101010.09
2022-09-02T02:47:13.961Z,101017.22
2022-09-02T02:49:42.580Z,101021.66
2022-09-02T02:52:10.272Z,101019.91
2022-09-02T02:54:38.555Z,101016.34
2022-09-02T02:57:06.229Z,101019.03
2022-09-02T02:59:32.990Z,101023.47
2022-09-02T03:01:59.836Z,101014.56
2022-09-02T03:04:27.213Z,101011.88
2022-09-02T03:06:53.954Z,101007.44
2022-09-02T03:09:21.014Z,101005.69
2022-09-02T03:11:48.539Z,101008.38
2022-09-02T03:14:15.952Z,101008.34
2022-09-02T03:16:43.401Z,101005.69
2022-09-02T03:19:10.258Z,101012.81
2022-09-02T03:21:39.017Z,101003.94
2022-09-02T03:24:08.685Z,101009.28
2022-09-02T03:26:35.716Z,101004.81
2022-09-02T03:29:02.930Z,101006.59
2022-09-02T03:31:29.889Z,101003.03
2022-09-02T03:33:58.652Z,100996.84
2022-09-02T03:36:29.656Z,100997.72
2022-09-02T03:38:57.747Z,101005.72
2022-09-02T03:41:24.933Z,101004.84
2022-09-02T03:43:53.002Z,101004.84
2022-09-02T03:46:22.845Z,101001.28
2022-09-02T03:48:51.688Z,101002.19
2022-09-02T03:51:20.442Z,101003.06
2022-09-02T03:53:47.466Z,100996.81
2022-09-02T03:56:16.506Z,101001.28
2022-09-02T03:58:47.056Z,100995.94
2022-09-02T04:01:16.179Z,100992.41
2022-09-02T04:03:43.783Z,100997.72
2022-09-02T04:06:15.624Z,100995.94
2022-09-02T04:08:45.043Z,100994.16
2022-09-02T04:11:16.407Z,100994.16
2022-09-02T04:13:46.784Z,100990.63
2022-09-02T04:16:19.658Z,100987.94
2022-09-02T04:18:46.631Z,100992.41
2022-09-02T04:21:14.487Z,100995.00
2022-09-02T04:23:41.757Z,100987.91
2022-09-02T04:26:13.675Z,100991.47
2022-09-02T04:28:40.829Z,100994.13
2022-09-02T04:31:10.318Z,100982.56
2022-09-02T04:33:38.918Z,100993.25
2022-09-02T04:36:10.828Z,100990.59
2022-09-02T04:38:44.167Z,100987.88
2022-09-02T04:41:14.687Z,100988.78
2022-09-02T04:43:41.953Z,100980.78
2022-09-02T04:46:15.670Z,100990.59
2022-09-02T04:48:44.872Z,100987.88
2022-09-02T04:51:16.563Z,100989.66
2022-09-02T04:53:45.749Z,100997.66
2022-09-02T04:56:17.180Z,100991.41
2022-09-02T04:58:44.643Z,100988.78
2022-09-02T05:01:15.957Z,100984.34
2022-09-02T05:04:02.315Z,100988.78
2022-09-02T05:06:39.518Z,100985.22
2022-09-02T05:09:08.811Z,100987.88
2022-09-02T05:11:38.789Z,100987.03
2022-09-02T05:14:07.053Z,100985.25
2022-09-02T05:16:42.355Z,100983.50
2022-09-02T05:19:14.651Z,100988.84
2022-09-02T05:21:49.098Z,100994.19
2022-09-02T05:24:26.899Z,100992.41
2022-09-02T05:26:55.861Z,100986.16
2022-09-02T05:29:23.927Z,100988.81
2022-09-02T05:31:51.769Z,100987.88
2022-09-02T05:34:19.939Z,100986.13
2022-09-02T05:36:48.212Z,100985.25
2022-09-02T05:39:15.071Z,100982.56
2022-09-02T05:41:42.250Z,100989.72
2022-09-02T05:44:11.871Z,100984.34
2022-09-02T05:46:39.125Z,100991.50
2022-09-02T05:49:06.697Z,100991.50
2022-09-02T05:51:52.906Z,100993.28
2022-09-02T05:54:31.251Z,100978.16
2022-09-02T05:57:09.103Z,100988.81
2022-09-02T05:59:40.060Z,100976.34
2022-09-02T06:02:09.754Z,100976.34
2022-09-02T06:04:43.312Z,100986.16
2022-09-02T06:07:11.739Z,100982.56
2022-09-02T06:09:44.642Z,100979.00
2022-09-02T06:12:13.105Z,100983.44
2022-09-02T06:14:41.458Z,100977.19
2022-09-02T06:17:09.134Z,100979.81
2022-09-02T06:19:41.346Z,100980.66
2022-09-02T06:22:11.447Z,100985.09
2022-09-02T06:24:39.088Z,100985.06
2022-09-02T06:27:13.573Z,100974.31
2022-09-02T06:29:45.976Z,100980.53
2022-09-02T06:32:15.811Z,100979.66
2022-09-02T06:34:42.528Z,100989.34
2022-09-02T06:37:09.280Z,100987.47
2022-09-02T06:39:43.794Z,100986.50
2022-09-02T06:42:16.326Z,100984.75
2022-09-02T06:45:03.860Z,100989.25
2022-09-02T06:47:31.841Z,100973.16
2022-09-02T06:49:59.925Z,100968.69
2022-09-02T06:52:27.411Z,100973.13
2022-09-02T06:54:55.344Z,100986.41
2022-09-02T06:57:22.342Z,100981.88
2022-09-02T06:59:53.459Z,100978.28
2022-09-02T07:02:30.832Z,100972.78
2022-09-02T07:05:09.971Z,100977.16
2022-09-02T07:07:39.029Z,100976.13
2022-09-02T07:10:12.628Z,100966.09
2022-09-02T07:12:40.916Z,100970.22
2022-09-02T07:15:14.057Z,100971.66
2022-09-02T07:17:42.409Z,100969.44
2022-09-02T07:20:13.777Z,100962.06
2022-09-02T07:25:25.047Z,100953.59
2022-09-02T07:27:52.249Z,100959.00
2022-09-02T07:30:19.216Z,100960.69
2022-09-02T07:32:49.709Z,100958.97
2022-09-02T07:35:19.636Z,100959.84
2022-09-02T07:37:46.596Z,100957.97
2022-09-02T07:40:14.368Z,100957.94
2022-09-02T07:42:42.715Z,100956.78
2022-09-02T07:45:10.246Z,100951.22
2022-09-02T07:47:39.595Z,100948.34
2022-09-02T07:50:22.264Z,100953.13
2022-09-02T07:52:58.004Z,100938.50
2022-09-02T07:55:27.367Z,100945.38
2022-09-02T07:57:55.540Z,100944.28
2022-09-02T08:00:27.431Z,100940.47
2022-09-02T08:02:56.561Z,100941.34
2022-09-02T08:05:29.684Z,100944.69
2022-09-02T08:07:56.577Z,100945.28
2022-09-02T08:10:25.946Z,100937.41
2022-09-02T08:12:53.150Z,100941.84
2022-09-02T08:15:22.563Z,100941.06
2022-09-02T08:17:49.798Z,100941.16
2022-09-02T08:20:17.880Z,100944.66
2022-09-02T08:22:48.864Z,100937.34
2022-09-02T08:25:22.638Z,100937.44
2022-09-02T08:27:49.410Z,100934.66
2022-09-02T08:30:16.445Z,100940.22
2022-09-02T08:32:43.165Z,100935.78
2022-09-02T08:35:10.554Z,100928.81
2022-09-02T08:37:38.132Z,100931.31
2022-09-02T08:40:07.812Z,100930.78
2022-09-02T08:42:41.188Z,100930.84
2022-09-02T08:45:37.088Z,100936.88
2022-09-02T08:48:21.324Z,100934.28
2022-09-02T08:50:49.829Z,100927.00
2022-09-02T08:53:25.326Z,100934.13
2022-09-02T08:55:57.688Z,100931.66
2022-09-02T08:58:28.768Z,100930.75
2022-09-02T09:01:31.168Z,100924.38
2022-09-02T09:04:16.542Z,100925.44
2022-09-02T09:06:49.324Z,100928.84
2022-09-02T09:09:28.390Z,100923.34
2022-09-02T09:12:22.745Z,100923.56
2022-09-02T09:15:11.470Z,100922.38
2022-09-02T09:17:44.699Z,100926.00
2022-09-02T09:20:23.270Z,100921.50
2022-09-02T09:22:51.520Z,100918.66
2022-09-02T09:25:18.597Z,100922.06
2022-09-02T09:27:48.081Z,100909.41
2022-09-02T09:30:15.713Z,100906.56
2022-09-02T09:32:47.394Z,100895.66
2022-09-02T09:35:18.770Z,100891.91
2022-09-02T09:37:53.666Z,100883.91
2022-09-02T09:40:23.221Z,100893.50
2022-09-02T09:42:57.879Z,100886.81
2022-09-02T09:45:35.436Z,100878.78
2022-09-02T09:48:22.737Z,100877.84
2022-09-02T09:51:10.527Z,100872.13
2022-09-02T09:53:40.345Z,100878.41
2022-09-02T09:56:16.143Z,100870.56
2022-09-02T09:58:45.549Z,100869.34
2022-09-02T10:01:13.546Z,100872.03
2022-09-02T10:03:55.877Z,100876.94
2022-09-02T10:06:25.169Z,100860.38
2022-09-02T10:08:57.617Z,100869.94
2022-09-02T10:11:29.558Z,100864.13
2022-09-02T10:14:08.236Z,100864.72
2022-09-02T10:16:42.755Z,100861.41
2022-09-02T10:19:18.849Z,100868.28
2022-09-02T10:22:00.804Z,100861.72
2022-09-02T10:24:49.880Z,100861.66
2022-09-02T10:27:22.748Z,100859.69
2022-09-02T10:30:16.854Z,100853.75
2022-09-02T10:32:58.130Z,100853.69
2022-09-02T10:35:43.000Z,100841.78
2022-09-02T10:38:26.971Z,100834.66
2022-09-02T10:41:06.962Z,100843.94
2022-09-02T10:44:05.352Z,100840.00
2022-09-02T10:46:40.010Z,100838.81
2022-09-02T10:49:06.731Z,100835.16
2022-09-02T10:51:39.542Z,100834.53
2022-09-02T10:54:41.776Z,100834.56
2022-09-02T10:57:18.882Z,100834.22
2022-09-02T10:59:55.202Z,100843.91
2022-09-02T11:02:32.315Z,100842.41
2022-09-02T11:05:03.815Z,100837.34
2022-09-02T11:07:37.046Z,100835.31
2022-09-02T11:10:09.784Z,100824.41
2022-09-02T11:12:40.995Z,100813.63
2022-09-02T11:15:25.850Z,100824.38
2022-09-02T11:18:05.818Z,100819.47
2022-09-02T11:20:47.177Z,100823.38
2022-09-02T11:23:23.429Z,100823.13
2022-09-02T11:26:08.034Z,100815.56
2022-09-02T11:28:43.940Z,100819.50
2022-09-02T11:31:35.721Z,100812.09
2022-09-02T11:34:19.598Z,100813.72
2022-09-02T11:36:46.402Z,100814.69
2022-09-02T11:39:21.911Z,100814.25
2022-09-02T11:42:11.609Z,100801.72
2022-09-02T11:44:41.633Z,100796.91
2022-09-02T11:48:00.115Z,100797.03
2022-09-02T11:50:47.168Z,100796.16
2022-09-02T11:53:30.482Z,100805.09
2022-09-02T11:56:18.921Z,100777.84
2022-09-02T11:58:49.634Z,100793.84
2022-09-02T12:01:28.068Z,100780.25
2022-09-02T12:07:09.523Z,100788.47
2022-09-02T12:09:53.003Z,100788.72
2022-09-02T12:12:41.674Z,100783.13
2022-09-02T12:15:16.968Z,100771.22
2022-09-02T12:17:50.930Z,100772.63
2022-09-02T12:20:37.627Z,100769.25
2022-09-02T12:23:05.996Z,100762.94
2022-09-02T12:25:35.694Z,100759.22
2022-09-02T12:28:23.875Z,100766.16
2022-09-02T12:31:07.842Z,100751.88
2022-09-02T12:33:49.367Z,100758.63
2022-09-02T12:36:47.928Z,100762.16
2022-09-02T12:39:30.530Z,100762.63
2022-09-02T12:42:07.306Z,100756.78
2022-09-02T12:45:13.719Z,100753.25
2022-09-02T12:47:59.742Z,100753.41
2022-09-02T12:50:46.516Z,100740.72
2022-09-02T12:53:40.634Z,100747.78
2022-09-02T12:56:13.535Z,100745.69
2022-09-02T12:58:46.034Z,100742.69
2022-09-02T13:01:13.321Z,100734.72
2022-09-02T13:04:16.453Z,100733.47
2022-09-02T13:07:02.057Z,100726.50
2022-09-02T13:10:06.566Z,100720.16
2022-09-02T13:13:09.105Z,100725.19
2022-09-02T13:16:02.301Z,100718.59
2022-09-02T13:18:50.751Z,100717.19
2022-09-02T13:21:50.122Z,100723.34
2022-09-02T13:24:54.564Z,100720.34
2022-09-02T13:27:50.647Z,100723.25
2022-09-02T13:30:23.464Z,100719.41
2022-09-02T13:32:59.807Z,100719.41
2022-09-02T13:35:27.861Z,100714.59
2022-09-02T13:38:02.776Z,100709.72
2022-09-02T13:40:50.857Z,100701.56
2022-09-02T13:43:20.919Z,100693.09
2022-09-02T13:45:54.213Z,100693.09
2022-09-02T13:48:27.122Z,100690.03
2022-09-02T13:50:57.162Z,100692.59
2022-09-02T13:53:59.037Z,100690.66
2022-09-02T13:56:31.043Z,100688.94
2022-09-02T13:58:58.461Z,100693.84
2022-09-02T14:01:29.536Z,100688.69
2022-09-02T14:03:58.476Z,100694.19
2022-09-02T14:06:33.411Z,100688.84
2022-09-02T14:09:03.958Z,100676.03
2022-09-02T14:11:38.320Z,100675.00
2022-09-02T14:14:09.416Z,100678.38
2022-09-02T14:16:37.438Z,100678.44
2022-09-02T14:19:14.692Z,100668.00
2022-09-02T14:21:56.488Z,100656.50
2022-09-02T14:24:28.182Z,100654.63
2022-09-02T14:26:57.126Z,100663.44
2022-09-02T14:29:24.764Z,100662.69
2022-09-02T14:32:14.944Z,100657.75
2022-09-02T14:34:46.106Z,100660.13
2022-09-02T14:37:21.485Z,100657.66
2022-09-02T14:40:12.717Z,100653.31
2022-09-02T14:42:48.447Z,100646.94
2022-09-02T14:45:25.844Z,100640.78
2022-09-02T14:47:52.890Z,100640.19
2022-09-02T14:50:20.215Z,100646.19
2022-09-02T14:52:56.054Z,100643.72
2022-09-02T14:55:55.084Z,100638.16
2022-09-02T14:58:26.729Z,100639.44
2022-09-02T15:00:59.443Z,100636.41
2022-09-02T15:03:27.473Z,100636.31
2022-09-02T15:05:54.408Z,100629.63
2022-09-02T15:08:33.008Z,100627.66
2022-09-02T15:11:02.427Z,100626.34
2022-09-02T15:13:34.111Z,100627.34
2022-09-02T15:16:06.970Z,100615.84
2022-09-02T15:18:36.689Z,100618.59
2022-09-02T15:21:05.224Z,100620.50
2022-09-02T15:23:34.839Z,100620.25
2022-09-02T15:26:06.715Z,100620.97
2022-09-02T15:28:33.952Z,100621.03
2022-09-02T15:31:01.870Z,100612.34
2022-09-02T15:33:29.355Z,100612.53
2022-09-02T15:36:19.309Z,100612.72
2022-09-02T15:38:57.974Z,100594.94
2022-09-02T15:41:37.914Z,100609.91
2022-09-02T15:44:13.985Z,100603.38
2022-09-02T15:46:53.108Z,100605.75
2022-09-02T15:49:33.636Z,100605.22
2022-09-02T15:55:16.357Z,100596.47
2022-09-02T15:57:43.673Z,100596.94
2022-09-02T16:00:11.339Z,100599.22
2022-09-02T16:02:43.859Z,100587.16
2022-09-02T16:05:12.095Z,100582.59
2022-09-02T16:07:38.873Z,100591.78
2022-09-02T16:10:11.625Z,100584.59
2022-09-02T16:12:41.017Z,100586.00
2022-09-02T16:15:08.597Z,100578.72
2022-09-02T16:17:36.076Z,100576.13
2022-09-02T16:20:06.238Z,100572.97
2022-09-02T16:22:33.118Z,100576.19
2022-09-02T16:25:11.502Z,100578.84
2022-09-02T16:27:55.009Z,100568.41
2022-09-02T16:30:42.231Z,100568.25
2022-09-02T16:33:13.631Z,100566.94
2022-09-02T16:35:40.688Z,100553.34
2022-09-02T16:38:07.639Z,100572.03
2022-09-02T16:40:34.456Z,100567.25
2022-09-02T16:43:02.477Z,100564.75
2022-09-02T16:45:29.807Z,100565.88
2022-09-02T16:47:56.658Z,100555.00
2022-09-02T16:50:26.379Z,100567.19
2022-09-02T16:52:55.308Z,100567.34
2022-09-02T16:55:25.280Z,100563.53
2022-09-02T16:57:52.111Z,100559.53
2022-09-02T17:00:18.953Z,100559.97
2022-09-02T17:02:53.985Z,100549.50
2022-09-02T17:10:37.539Z,100551.53
2022-09-02T17:13:07.335Z,100552.31
2022-09-02T17:15:34.215Z,100556.06
2022-09-02T17:18:03.007Z,100555.63
2022-09-02T17:20:44.644Z,100556.72
2022-09-02T17:23:14.852Z,100551.88
2022-09-02T17:25:49.401Z,100551.75
2022-09-02T17:28:28.092Z,100559.22
2022-09-02T17:30:59.062Z,100553.78
2022-09-02T17:33:27.416Z,100551.44
2022-09-02T17:39:05.726Z,100559.00
2022-09-02T17:41:54.424Z,100549.34
2022-09-02T17:44:26.075Z,100556.28
2022-09-02T17:47:10.905Z,100547.69
2022-09-02T17:50:53.097Z,100551.16
2022-09-02T17:53:47.794Z,100561.06
2022-09-02T17:56:33.018Z,100558.72
2022-09-02T18:04:35.793Z,100558.31
2022-09-02T18:13:12.873Z,100545.91
2022-09-02T18:16:50.828Z,100549.69
2022-09-02T18:20:14.264Z,100557.63
2022-09-02T18:22:48.447Z,100552.88
2022-09-02T18:25:37.870Z,100551.13
2022-09-02T18:28:30.690Z,100554.19
2022-09-02T18:31:16.382Z,100553.84
2022-09-02T18:34:11.887Z,100549.63
2022-09-02T18:36:46.797Z,100555.41
2022-09-02T18:43:28.979Z,100561.63
2022-09-02T18:46:01.226Z,100565.34
2022-09-02T18:48:32.462Z,100561.72
2022-09-02T18:51:09.991Z,100565.72
2022-09-02T18:53:49.212Z,100569.47
2022-09-02T18:56:35.652Z,100573.25
2022-09-02T18:59:40.732Z,100573.06
2022-09-02T19:03:36.088Z,100579.22
2022-09-02T19:06:04.165Z,100575.06
2022-09-02T19:08:34.004Z,100570.34
2022-09-02T19:11:03.788Z,100577.13
2022-09-02T19:13:57.057Z,100581.59
2022-09-02T19:16:37.365Z,100581.59
2022-09-02T19:19:27.492Z,100579.81
2022-09-02T19:22:01.872Z,100577.13
2022-09-02T19:40:50.204Z,100588.56
2022-09-02T19:43:17.229Z,100588.94
2022-09-02T19:46:22.003Z,100587.16
2022-09-02T19:49:00.427Z,100581.28
2022-09-02T19:51:27.361Z,100584.44
2022-09-02T19:54:04.034Z,100580.22
2022-09-02T19:56:31.156Z,100579.25
2022-09-02T19:58:58.093Z,100578.34
2022-09-02T20:01:24.894Z,100576.50
2022-09-02T20:03:51.876Z,100580.94
2022-09-02T20:06:18.638Z,100583.53
2022-09-02T20:08:45.724Z,100577.44
2022-09-02T20:11:17.943Z,100574.97
2022-09-02T20:14:13.775Z,100575.09
2022-09-02T20:17:10.515Z,100576.91
2022-09-02T20:19:37.326Z,100578.00
2022-09-02T20:22:11.952Z,100571.75
2022-09-02T20:24:41.690Z,100578.00
2022-09-02T20:28:03.898Z,100571.78
2022-09-02T20:30:34.358Z,100567.56
2022-09-02T20:33:19.618Z,100576.00
2022-09-02T20:36:04.832Z,100571.53
2022-09-02T20:38:53.726Z,100571.28
2022-09-02T20:41:35.323Z,100569.38
2022-09-02T20:44:35.594Z,100566.25
2022-09-02T20:47:23.171Z,100564.81
2022-09-02T20:50:40.281Z,100561.72
2022-09-02T20:53:18.900Z,100560.19
2022-09-02T20:55:55.617Z,100561.09
2022-09-02T20:58:36.181Z,100553.84
2022-09-02T21:01:07.313Z,100557.47
2022-09-02T21:03:57.483Z,100558.53
2022-09-02T21:06:26.930Z,100558.44
2022-09-02T21:09:03.175Z,100551.19
2022-09-02T21:11:50.264Z,100552.16
2022-09-02T21:14:23.792Z,100546.22
2022-09-02T21:17:04.726Z,100549.56
2022-09-02T21:19:45.245Z,100554.97
2022-09-02T21:22:30.891Z,100558.56
2022-09-02T21:25:10.125Z,100559.53
2022-09-02T21:27:45.506Z,100550.59
2022-09-02T21:30:20.168Z,100557.91
2022-09-02T21:32:56.534Z,100549.75
2022-09-02T21:35:37.885Z,100550.84
2022-09-02T21:38:10.474Z,100552.44
2022-09-02T21:40:54.335Z,100547.69
2022-09-02T21:44:00.082Z,100552.00
2022-09-02T21:47:05.157Z,100548.50
2022-09-02T21:49:56.703Z,100548.56
2022-09-02T21:52:49.041Z,100553.75
2022-09-02T21:55:59.615Z,100552.75
2022-09-02T21:58:29.610Z,100547.00
2022-09-02T22:01:07.977Z,100551.50
2022-09-02T22:04:11.060Z,100551.50
2022-09-02T22:06:45.801Z,100550.44
2022-09-02T22:09:22.853Z,100552.44
2022-09-02T22:11:59.967Z,100546.16
2022-09-02T22:14:44.525Z,100541.56
2022-09-02T22:17:15.199Z,100539.91
2022-09-02T22:19:42.674Z,100533.75
2022-09-02T22:22:18.523Z,100528.44
2022-09-02T22:24:48.124Z,100529.97
2022-09-02T22:27:22.302Z,100533.59
2022-09-02T22:30:03.988Z,100538.16
2022-09-02T22:32:35.893Z,100532.44
2022-09-02T22:35:08.622Z,100528.78
2022-09-02T22:37:59.697Z,100529.91
2022-09-02T22:40:32.371Z,100526.88
2022-09-02T22:43:04.664Z,100528.69
2022-09-02T22:45:54.111Z,100527.63
2022-09-02T22:48:49.074Z,100526.00
2022-09-02T22:52:02.968Z,100532.34
2022-09-02T22:54:31.997Z,100528.84
2022-09-02T22:57:10.616Z,100524.34
2022-09-02T22:59:58.115Z,100528.78
2022-09-02T23:02:36.790Z,100528.00
2022-09-02T23:05:09.136Z,100523.41
2022-09-02T23:07:35.890Z,100511.91
2022-09-02T23:10:06.369Z,100527.19
2022-09-02T23:12:43.325Z,100530.78
2022-09-02T23:15:37.169Z,100523.97
2022-09-02T23:18:22.408Z,100522.91
2022-09-02T23:20:58.952Z,100524.78
2022-09-02T23:23:25.544Z,100524.81
2022-09-02T23:26:14.471Z,100525.16
2022-09-02T23:28:56.520Z,100523.38
2022-09-02T23:31:58.870Z,100529.56
2022-09-02T23:34:43.969Z,100525.13
2022-09-02T23:37:34.924Z,100525.22
2022-09-02T23:40:30.776Z,100526.00
2022-09-02T23:42:58.052Z,100525.28
2022-09-02T23:45:29.985Z,100517.31
2022-09-02T23:47:56.595Z,100519.78
2022-09-02T23:51:06.353Z,100521.66
2022-09-02T23:53:43.255Z,100518.94
2022-09-02T23:56:16.012Z,100513.59
2022-09-02T23:58:45.445Z,100513.63
